createdAt,value
2018-11-23T00:01:54.805Z,100280.03
2018-11-23T00:04:22.072Z,100273.16
2018-11-23T00:06:49.345Z,100280.25
2018-11-23T00:09:17.804Z,100285.13
2018-11-23T00:11:45.051Z,100280.83
2018-11-23T00:14:12.300Z,100278.26
2018-11-23T00:16:39.664Z,100282.69
2018-11-23T00:19:06.944Z,100282.80
2018-11-23T00:21:34.633Z,100284.21
2018-11-23T00:24:01.928Z,100282.58
2018-11-23T00:26:29.189Z,100284.75
2018-11-23T00:28:56.452Z,100283.95
2018-11-23T00:31:23.698Z,100282.79
2018-11-23T00:33:50.951Z,100283.36
2018-11-23T00:36:18.556Z,100281.77
2018-11-23T00:38:45.816Z,100284.91
2018-11-23T00:41:13.095Z,100289.78
2018-11-23T00:43:40.368Z,100286.39
2018-11-23T00:46:07.665Z,100289.48
2018-11-23T00:48:34.932Z,100288.64
2018-11-23T00:51:02.214Z,100285.22
2018-11-23T00:53:29.485Z,100287.84
2018-11-23T00:55:56.723Z,100285.33
2018-11-23T00:58:23.989Z,100287.54
2018-11-23T01:00:51.239Z,100287.10
2018-11-23T01:03:18.544Z,100291.13
2018-11-23T01:05:45.797Z,100289.41
2018-11-23T01:08:13.104Z,100292.94
2018-11-23T01:10:40.376Z,100295.55
2018-11-23T01:13:07.629Z,100295.58
2018-11-23T01:15:34.946Z,100294.31
2018-11-23T01:18:02.218Z,100293.84
2018-11-23T01:20:29.670Z,100300.38
2018-11-23T01:22:57.554Z,100295.58
2018-11-23T01:25:25.709Z,100294.67
2018-11-23T01:27:53.747Z,100295.95
2018-11-23T01:30:22.458Z,100293.34
2018-11-23T01:32:49.712Z,100293.73
2018-11-23T01:35:17.054Z,100286.33
2018-11-23T01:37:44.331Z,100295.55
2018-11-23T01:40:12.066Z,100292.94
2018-11-23T01:42:39.321Z,100281.64
2018-11-23T01:45:06.590Z,100281.71
2018-11-23T01:47:33.883Z,100283.08
2018-11-23T01:50:01.456Z,100281.01
2018-11-23T01:52:28.704Z,100283.62
2018-11-23T01:54:55.960Z,100273.17
2018-11-23T01:57:23.217Z,100273.67
2018-11-23T01:59:50.482Z,100278.50
2018-11-23T02:02:17.774Z,100276.78
2018-11-23T02:04:45.020Z,100280.30
2018-11-23T02:07:12.268Z,100275.98
2018-11-23T02:09:39.557Z,100278.16
2018-11-23T02:12:06.857Z,100276.45
2018-11-23T02:14:34.121Z,100277.35
2018-11-23T02:17:01.416Z,100279.16
2018-11-23T02:19:28.722Z,100275.67
2018-11-23T02:21:55.976Z,100280.56
2018-11-23T02:24:23.240Z,100285.29
2018-11-23T02:26:50.493Z,100281.73
2018-11-23T02:29:17.760Z,100280.47
2018-11-23T02:31:45.036Z,100280.50
2018-11-23T02:34:12.292Z,100280.56
2018-11-23T02:36:39.536Z,100284.05
2018-11-23T02:39:06.786Z,100273.20
2018-11-23T02:41:34.357Z,100278.02
2018-11-23T02:44:01.686Z,100281.09
2018-11-23T02:46:28.961Z,100270.31
2018-11-23T02:48:56.295Z,100277.78
2018-11-23T02:51:23.654Z,100282.20
2018-11-23T02:53:50.921Z,100280.02
2018-11-23T02:56:18.277Z,100285.24
2018-11-23T02:58:45.549Z,100281.80
2018-11-23T03:01:12.853Z,100278.78
2018-11-23T03:03:40.444Z,100280.55
2018-11-23T03:06:07.704Z,100280.61
2018-11-23T03:08:34.965Z,100280.64
2018-11-23T03:11:02.233Z,100281.14
2018-11-23T03:13:29.536Z,100279.06
2018-11-23T03:15:56.829Z,100276.08
2018-11-23T03:18:24.080Z,100275.20
2018-11-23T03:20:51.343Z,100273.97
2018-11-23T03:23:18.630Z,100273.63
2018-11-23T03:25:45.889Z,100271.11
2018-11-23T03:28:13.155Z,100270.27
2018-11-23T03:30:40.432Z,100262.09
2018-11-23T03:33:07.705Z,100260.82
2018-11-23T03:35:34.981Z,100254.32
2018-11-23T03:38:02.269Z,100257.86
2018-11-23T03:40:29.922Z,100249.69
2018-11-23T03:42:57.227Z,100253.17
2018-11-23T03:45:24.521Z,100254.45
2018-11-23T03:47:51.805Z,100253.11
2018-11-23T03:50:19.336Z,100246.55
2018-11-23T03:52:46.854Z,100246.09
2018-11-23T03:55:14.155Z,100248.67
2018-11-23T03:57:41.444Z,100250.78
2018-11-23T04:00:08.716Z,100248.27
2018-11-23T04:02:35.978Z,100254.39
2018-11-23T04:05:03.269Z,100253.08
2018-11-23T04:07:30.558Z,100249.60
2018-11-23T04:09:57.858Z,100251.41
2018-11-23T04:12:25.136Z,100246.09
2018-11-23T04:14:52.452Z,100253.89
2018-11-23T04:17:19.829Z,100249.97
2018-11-23T04:19:47.121Z,100246.96
2018-11-23T04:22:14.789Z,100247.42
2018-11-23T04:24:42.137Z,100253.08
2018-11-23T04:27:09.397Z,100249.63
2018-11-23T04:29:36.690Z,100254.48
2018-11-23T04:32:04.486Z,100257.95
2018-11-23T04:34:31.751Z,100254.14
2018-11-23T04:36:59.013Z,100249.88
2018-11-23T04:39:26.379Z,100245.13
2018-11-23T04:41:54.093Z,100249.06
2018-11-23T04:44:21.359Z,100247.30
2018-11-23T04:46:48.695Z,100243.45
2018-11-23T04:49:16.041Z,100243.45
2018-11-23T04:51:43.681Z,100245.19
2018-11-23T04:54:10.954Z,100243.10
2018-11-23T04:56:38.221Z,100247.52
2018-11-23T04:59:05.532Z,100244.03
2018-11-23T05:01:33.314Z,100242.79
2018-11-23T05:04:00.679Z,100244.91
2018-11-23T05:06:27.968Z,100245.71
2018-11-23T05:08:55.646Z,100246.11
2018-11-23T05:11:22.899Z,100244.37
2018-11-23T05:13:50.172Z,100241.27
2018-11-23T05:16:17.445Z,100242.58
2018-11-23T05:18:44.696Z,100239.53
2018-11-23T05:21:11.961Z,100239.47
2018-11-23T05:23:39.616Z,100239.94
2018-11-23T05:26:07.197Z,100231.64
2018-11-23T05:28:34.486Z,100242.42
2018-11-23T05:31:02.197Z,100242.80
2018-11-23T05:33:29.501Z,100236.67
2018-11-23T05:35:56.769Z,100237.08
2018-11-23T05:38:24.317Z,100234.09
2018-11-23T05:40:51.644Z,100236.70
2018-11-23T05:43:18.914Z,100233.28
2018-11-23T05:45:46.509Z,100239.44
2018-11-23T05:48:13.818Z,100231.70
2018-11-23T05:50:41.085Z,100230.39
2018-11-23T05:53:09.316Z,100234.31
2018-11-23T05:55:36.580Z,100231.61
2018-11-23T05:58:03.901Z,100235.02
2018-11-23T06:00:32.454Z,100229.77
2018-11-23T06:02:59.732Z,100226.29
2018-11-23T06:05:27.164Z,100228.44
2018-11-23T06:07:54.889Z,100223.22
2018-11-23T06:10:22.553Z,100223.63
2018-11-23T06:12:49.837Z,100223.22
2018-11-23T06:15:18.607Z,100218.40
2018-11-23T06:17:46.441Z,100217.50
2018-11-23T06:20:14.820Z,100223.59
2018-11-23T06:22:42.761Z,100214.89
2018-11-23T06:25:10.288Z,100217.09
2018-11-23T06:27:37.625Z,100214.55
2018-11-23T06:30:05.273Z,100216.81
2018-11-23T06:32:32.552Z,100220.73
2018-11-23T06:35:00.735Z,100217.28
2018-11-23T06:37:29.104Z,100215.20
2018-11-23T06:39:57.491Z,100217.81
2018-11-23T06:42:24.792Z,100217.81
2018-11-23T06:44:53.357Z,100214.39
2018-11-23T06:47:20.650Z,100213.59
2018-11-23T06:49:47.949Z,100214.55
2018-11-23T06:52:15.604Z,100214.61
2018-11-23T06:54:42.891Z,100213.18
2018-11-23T06:57:10.161Z,100218.25
2018-11-23T06:59:37.772Z,100217.63
2018-11-23T07:02:05.031Z,100211.38
2018-11-23T07:04:32.317Z,100208.57
2018-11-23T07:07:00.764Z,100207.14
2018-11-23T07:09:28.307Z,100205.33
2018-11-23T07:11:55.568Z,100205.33
2018-11-23T07:14:23.339Z,100213.56
2018-11-23T07:16:50.616Z,100214.91
2018-11-23T07:19:17.896Z,100214.50
2018-11-23T07:21:45.512Z,100212.36
2018-11-23T07:24:12.790Z,100213.27
2018-11-23T07:26:40.064Z,100222.70
2018-11-23T07:29:07.780Z,100226.13
2018-11-23T07:31:35.822Z,100217.42
2018-11-23T07:34:03.086Z,100226.97
2018-11-23T07:36:30.788Z,100229.94
2018-11-23T07:38:59.416Z,100222.45
2018-11-23T07:41:26.668Z,100221.91
2018-11-23T07:43:54.400Z,100223.22
2018-11-23T07:46:21.725Z,100213.17
2018-11-23T07:48:49.938Z,100215.75
2018-11-23T07:51:17.596Z,100223.55
2018-11-23T07:53:44.932Z,100213.55
2018-11-23T07:56:12.230Z,100211.77
2018-11-23T07:58:39.920Z,100211.27
2018-11-23T08:01:07.880Z,100223.29
2018-11-23T08:03:35.126Z,100226.10
2018-11-23T08:06:02.710Z,100228.98
2018-11-23T08:08:29.977Z,100233.83
2018-11-23T08:10:56.317Z,100227.91
2018-11-23T08:13:24.077Z,100221.66
2018-11-23T08:15:51.354Z,100220.63
2018-11-23T08:18:18.667Z,100221.52
2018-11-23T08:20:46.411Z,100214.95
2018-11-23T08:23:14.345Z,100213.02
2018-11-23T08:25:42.672Z,100210.70
2018-11-23T08:28:10.226Z,100203.72
2018-11-23T08:30:39.105Z,100207.66
2018-11-23T08:33:06.365Z,100207.00
2018-11-23T08:35:34.015Z,100195.66
2018-11-23T08:38:01.286Z,100201.34
2018-11-23T08:40:28.699Z,100199.38
2018-11-23T08:42:56.908Z,100208.39
2018-11-23T08:45:25.967Z,100207.30
2018-11-23T08:47:53.256Z,100205.99
2018-11-23T08:50:22.317Z,100203.32
2018-11-23T08:52:49.597Z,100200.97
2018-11-23T08:55:17.572Z,100197.90
2018-11-23T08:57:45.240Z,100199.08
2018-11-23T09:00:13.829Z,100195.02
2018-11-23T09:02:41.873Z,100190.98
2018-11-23T09:05:09.441Z,100197.02
2018-11-23T09:07:36.725Z,100192.46
2018-11-23T09:10:05.337Z,100189.13
2018-11-23T09:12:33.036Z,100192.30
2018-11-23T09:15:00.352Z,100195.14
2018-11-23T09:17:28.265Z,100193.20
2018-11-23T09:19:55.884Z,100195.92
2018-11-23T09:22:23.502Z,100193.84
2018-11-23T09:24:50.541Z,100187.34
2018-11-23T09:27:18.182Z,100189.09
2018-11-23T09:29:45.467Z,100192.50
2018-11-23T09:32:12.812Z,100195.35
2018-11-23T09:34:40.805Z,100193.00
2018-11-23T09:37:08.457Z,100190.38
2018-11-23T09:39:35.828Z,100193.83
2018-11-23T09:42:04.304Z,100179.51
2018-11-23T09:44:31.654Z,100177.82
2018-11-23T09:46:58.992Z,100173.77
2018-11-23T09:49:26.610Z,100169.08
2018-11-23T09:51:53.926Z,100161.64
2018-11-23T09:54:21.213Z,100152.19
2018-11-23T09:56:48.825Z,100136.95
2018-11-23T09:59:16.130Z,100133.61
2018-11-23T10:01:43.414Z,100137.74
2018-11-23T10:04:11.013Z,100135.50
2018-11-23T10:06:39.391Z,100126.39
2018-11-23T10:09:06.676Z,100113.79
2018-11-23T10:11:34.375Z,100123.27
2018-11-23T10:14:01.908Z,100121.42
2018-11-23T10:16:29.185Z,100117.42
2018-11-23T10:18:56.793Z,100116.05
2018-11-23T10:21:24.116Z,100118.47
2018-11-23T10:23:51.485Z,100109.91
2018-11-23T10:26:19.166Z,100109.67
2018-11-23T10:28:46.513Z,100101.25
2018-11-23T10:31:13.820Z,100101.24
2018-11-23T10:33:41.525Z,100102.81
2018-11-23T10:36:09.689Z,100103.84
2018-11-23T10:38:36.972Z,100094.64
2018-11-23T10:41:04.716Z,100094.92
2018-11-23T10:43:31.994Z,100094.12
2018-11-23T10:45:59.295Z,100096.89
2018-11-23T10:48:26.891Z,100085.50
2018-11-23T10:50:54.196Z,100082.03
2018-11-23T10:53:21.521Z,100080.59
2018-11-23T10:55:49.257Z,100078.61
2018-11-23T10:58:17.141Z,100069.73
2018-11-23T11:00:54.415Z,100061.02
2018-11-23T11:03:33.569Z,100064.93
2018-11-23T11:06:05.018Z,100068.64
2018-11-23T11:08:32.719Z,100063.30
2018-11-23T11:11:00.003Z,100058.97
2018-11-23T11:13:27.287Z,100050.00
2018-11-23T11:15:54.930Z,100046.11
2018-11-23T11:18:22.213Z,100047.09
2018-11-23T11:20:49.521Z,100041.73
2018-11-23T11:23:17.252Z,100035.16
2018-11-23T11:25:44.545Z,100031.98
2018-11-23T11:28:11.820Z,100028.25
2018-11-23T11:30:39.461Z,100023.87
2018-11-23T11:33:06.726Z,100021.35
2018-11-23T11:35:34.047Z,100019.98
2018-11-23T11:38:01.826Z,100016.06
2018-11-23T11:40:29.104Z,100023.05
2018-11-23T11:42:56.414Z,100017.39
2018-11-23T11:45:24.041Z,100018.82
2018-11-23T11:47:51.427Z,100017.55
2018-11-23T11:50:18.730Z,100019.86
2018-11-23T11:52:47.718Z,100014.88
2018-11-23T11:55:17.117Z,100010.47
2018-11-23T11:57:45.665Z,100015.78
2018-11-23T12:00:17.494Z,100008.31
2018-11-23T12:02:44.787Z,100003.63
2018-11-23T12:05:13.736Z,100004.59
2018-11-23T12:07:41.406Z,100001.84
2018-11-23T12:10:08.771Z,100007.97
2018-11-23T12:12:36.072Z,100004.77
2018-11-23T12:15:03.755Z,100006.33
2018-11-23T12:17:33.693Z,99997.32
2018-11-23T12:20:00.966Z,99994.13
2018-11-23T12:22:28.716Z,99994.56
2018-11-23T12:24:56.909Z,99992.66
2018-11-23T12:27:24.255Z,99994.11
2018-11-23T12:29:51.932Z,99988.34
2018-11-23T12:32:19.250Z,99991.66
2018-11-23T12:34:46.631Z,99986.61
2018-11-23T12:37:14.325Z,99993.06
2018-11-23T12:39:41.591Z,99986.89
2018-11-23T12:42:08.845Z,99985.69
2018-11-23T12:44:37.091Z,99981.59
2018-11-23T12:47:04.385Z,99984.89
2018-11-23T12:49:31.682Z,99980.41
2018-11-23T12:51:59.273Z,99983.55
2018-11-23T12:54:26.589Z,99973.27
2018-11-23T12:56:54.816Z,99978.75
2018-11-23T12:59:23.117Z,99966.73
2018-11-23T13:01:50.404Z,99967.48
2018-11-23T13:04:17.705Z,99965.20
2018-11-23T13:06:45.422Z,99963.13
2018-11-23T13:09:12.735Z,99967.12
2018-11-23T13:11:41.226Z,99963.14
2018-11-23T13:14:09.178Z,99958.05
2018-11-23T13:16:36.468Z,99956.72
2018-11-23T13:19:03.745Z,99962.30
2018-11-23T13:21:31.404Z,99954.06
2018-11-23T13:23:58.852Z,99956.08
2018-11-23T13:26:26.128Z,99956.19
2018-11-23T13:28:53.851Z,99954.00
2018-11-23T13:31:21.144Z,99958.81
2018-11-23T13:33:49.266Z,99953.48
2018-11-23T13:36:17.762Z,99953.08
2018-11-23T13:38:45.030Z,99958.76
2018-11-23T13:41:12.328Z,99953.79
2018-11-23T13:43:40.103Z,99947.39
2018-11-23T13:46:07.383Z,99945.91
2018-11-23T13:48:35.522Z,99950.14
2018-11-23T13:51:03.272Z,99945.08
2018-11-23T13:53:30.593Z,99948.93
2018-11-23T13:55:57.992Z,99946.05
2018-11-23T13:58:25.694Z,99941.31
2018-11-23T14:00:52.978Z,99946.52
2018-11-23T14:03:20.259Z,99944.83
2018-11-23T14:05:47.917Z,99938.18
2018-11-23T14:08:15.212Z,99936.48
2018-11-23T14:10:43.497Z,99932.50
2018-11-23T14:13:11.742Z,99931.28
2018-11-23T14:15:38.894Z,99927.90
2018-11-23T14:18:06.209Z,99929.34
2018-11-23T14:20:34.721Z,99922.58
2018-11-23T14:23:02.019Z,99917.71
2018-11-23T14:25:31.428Z,99918.53
2018-11-23T14:27:59.370Z,99925.41
2018-11-23T14:30:28.733Z,99921.28
2018-11-23T14:32:56.192Z,99922.70
2018-11-23T14:35:25.367Z,99905.97
2018-11-23T14:37:53.535Z,99916.39
2018-11-23T14:40:20.868Z,99910.28
2018-11-23T14:42:49.300Z,99912.66
2018-11-23T14:45:17.526Z,99914.19
2018-11-23T14:47:44.873Z,99911.16
2018-11-23T14:50:13.519Z,99914.59
2018-11-23T14:52:40.825Z,99911.77
2018-11-23T14:55:08.115Z,99911.89
2018-11-23T14:57:35.746Z,99911.30
2018-11-23T15:00:05.690Z,99915.05
2018-11-23T15:02:33.014Z,99912.06
2018-11-23T15:05:02.098Z,99915.89
2018-11-23T15:07:29.447Z,99906.50
2018-11-23T15:09:56.802Z,99901.64
2018-11-23T15:12:24.564Z,99901.14
2018-11-23T15:14:51.857Z,99900.14
2018-11-23T15:17:19.166Z,99901.87
2018-11-23T15:19:46.477Z,99901.62
2018-11-23T15:22:13.777Z,99902.95
2018-11-23T15:24:44.918Z,99902.23
2018-11-23T15:27:12.192Z,99900.63
2018-11-23T15:29:39.477Z,99907.91
2018-11-23T15:32:07.074Z,99917.29
2018-11-23T15:34:34.349Z,99914.81
2018-11-23T15:37:01.622Z,99912.83
2018-11-23T15:39:29.251Z,99916.80
2018-11-23T15:41:56.549Z,99914.18
2018-11-23T15:44:23.845Z,99910.95
2018-11-23T15:46:51.981Z,99908.27
2018-11-23T15:49:19.644Z,99909.59
2018-11-23T15:51:47.722Z,99904.67
2018-11-23T15:54:16.198Z,99903.25
2018-11-23T15:56:44.727Z,99911.45
2018-11-23T15:59:14.157Z,99914.83
2018-11-23T16:01:43.321Z,99915.59
2018-11-23T16:04:12.282Z,99909.35
2018-11-23T16:06:39.621Z,99911.41
2018-11-23T16:09:07.427Z,99903.46
2018-11-23T16:11:34.708Z,99908.34
2018-11-23T16:14:02.064Z,99907.64
2018-11-23T16:16:30.272Z,99908.38
2018-11-23T16:18:57.629Z,99906.34
2018-11-23T16:21:24.941Z,99907.41
2018-11-23T16:23:56.556Z,99903.59
2018-11-23T16:26:23.908Z,99898.73
2018-11-23T16:28:51.230Z,99897.41
2018-11-23T16:31:19.950Z,99897.26
2018-11-23T16:33:47.271Z,99892.73
2018-11-23T16:36:14.541Z,99905.91
2018-11-23T16:38:42.236Z,99900.90
2018-11-23T16:41:10.553Z,99890.98
2018-11-23T16:43:37.824Z,99893.47
2018-11-23T16:46:05.620Z,99893.91
2018-11-23T16:48:34.319Z,99890.73
2018-11-23T16:51:01.649Z,99890.16
2018-11-23T16:53:29.742Z,99895.19
2018-11-23T16:55:57.044Z,99893.05
2018-11-23T16:58:24.416Z,99893.42
2018-11-23T17:00:53.044Z,99892.41
2018-11-23T17:03:21.677Z,99890.16
2018-11-23T17:05:51.448Z,99883.57
2018-11-23T17:08:19.612Z,99885.83
2018-11-23T17:10:47.648Z,99883.27
2018-11-23T17:13:16.303Z,99879.77
2018-11-23T17:15:45.280Z,99882.33
2018-11-23T17:18:13.225Z,99881.01
2018-11-23T17:20:41.325Z,99876.68
2018-11-23T17:23:09.996Z,99871.03
2018-11-23T17:25:37.297Z,99871.48
2018-11-23T17:28:06.007Z,99871.59
2018-11-23T17:30:34.557Z,99867.33
2018-11-23T17:33:01.874Z,99861.83
2018-11-23T17:35:29.429Z,99868.67
2018-11-23T17:37:57.192Z,99869.38
2018-11-23T17:40:25.761Z,99868.86
2018-11-23T17:42:53.200Z,99865.16
2018-11-23T17:45:21.400Z,99864.92
2018-11-23T17:47:48.828Z,99869.61
2018-11-23T17:50:21.266Z,99869.69
2018-11-23T17:52:49.413Z,99865.08
2018-11-23T17:55:16.688Z,99871.34
2018-11-23T17:57:45.293Z,99863.55
2018-11-23T18:00:13.034Z,99878.50
2018-11-23T18:02:40.439Z,99876.65
2018-11-23T18:05:07.780Z,99873.94
2018-11-23T18:07:35.890Z,99870.75
2018-11-23T18:10:03.288Z,99867.42
2018-11-23T18:12:30.562Z,99864.02
2018-11-23T18:14:58.573Z,99867.10
2018-11-23T18:17:25.840Z,99858.38
2018-11-23T18:19:53.136Z,99854.82
2018-11-23T18:22:20.748Z,99851.33
2018-11-23T18:24:48.729Z,99849.25
2018-11-23T18:27:16.019Z,99849.96
2018-11-23T18:29:44.725Z,99837.12
2018-11-23T18:32:12.003Z,99836.87
2018-11-23T18:34:39.282Z,99832.77
2018-11-23T18:37:06.905Z,99828.68
2018-11-23T18:39:34.169Z,99820.55
2018-11-23T18:42:02.549Z,99816.38
2018-11-23T18:44:30.099Z,99812.73
2018-11-23T18:46:57.663Z,99815.05
2018-11-23T18:49:24.977Z,99800.76
2018-11-23T18:51:53.682Z,99802.59
2018-11-23T18:54:20.963Z,99797.81
2018-11-23T18:56:48.230Z,99788.07
2018-11-23T18:59:15.858Z,99780.19
2018-11-23T19:01:43.496Z,99787.23
2018-11-23T19:04:10.775Z,99782.05
2018-11-23T19:06:38.453Z,99777.73
2018-11-23T19:09:06.108Z,99774.40
2018-11-23T19:11:33.386Z,99770.97
2018-11-23T19:14:01.089Z,99772.06
2018-11-23T19:16:28.396Z,99766.98
2018-11-23T19:18:56.460Z,99764.48
2018-11-23T19:21:24.013Z,99764.64
2018-11-23T19:23:51.314Z,99762.08
2018-11-23T19:26:19.229Z,99760.70
2018-11-23T19:28:50.519Z,99767.36
2018-11-23T19:31:17.818Z,99757.55
2018-11-23T19:33:45.085Z,99757.84
2018-11-23T19:36:12.708Z,99766.59
2018-11-23T19:38:39.999Z,99768.44
2018-11-23T19:41:07.360Z,99765.02
2018-11-23T19:43:35.441Z,99767.42
2018-11-23T19:46:02.798Z,99770.21
2018-11-23T19:48:30.636Z,99765.57
2018-11-23T19:50:58.252Z,99758.69
2018-11-23T19:53:26.181Z,99756.99
2018-11-23T19:55:54.434Z,99755.27
2018-11-23T19:58:23.582Z,99748.41
2018-11-23T20:00:51.552Z,99743.24
2018-11-23T20:03:19.856Z,99740.70
2018-11-23T20:05:48.479Z,99741.47
2018-11-23T20:08:15.782Z,99742.02
2018-11-23T20:10:43.062Z,99745.19
2018-11-23T20:13:11.514Z,99740.06
2018-11-23T20:15:38.793Z,99742.02
2018-11-23T20:18:08.614Z,99743.47
2018-11-23T20:20:35.870Z,99742.64
2018-11-23T20:23:03.124Z,99732.64
2018-11-23T20:25:30.797Z,99740.63
2018-11-23T20:27:58.050Z,99729.80
2018-11-23T20:30:25.413Z,99729.65
2018-11-23T20:32:53.311Z,99732.09
2018-11-23T20:35:21.321Z,99723.61
2018-11-23T20:37:49.559Z,99722.58
2018-11-23T20:40:17.182Z,99726.36
2018-11-23T20:42:44.461Z,99737.09
2018-11-23T20:45:12.289Z,99723.70
2018-11-23T20:47:39.983Z,99721.30
2018-11-23T20:50:07.260Z,99714.20
2018-11-23T20:52:34.544Z,99710.99
2018-11-23T20:55:02.121Z,99712.59
2018-11-23T20:57:29.967Z,99708.88
2018-11-23T20:59:57.269Z,99708.64
2018-11-23T21:04:57.073Z,99699.46
2018-11-23T21:07:24.364Z,99696.03
2018-11-23T21:09:51.990Z,99691.72
2018-11-23T21:12:19.506Z,99688.77
2018-11-23T21:14:46.834Z,99684.61
2018-11-23T21:17:14.609Z,99686.08
2018-11-23T21:19:42.812Z,99681.44
2018-11-23T21:22:10.417Z,99680.63
2018-11-23T21:24:38.148Z,99674.94
2018-11-23T21:27:05.407Z,99676.42
2018-11-23T21:29:32.678Z,99671.34
2018-11-23T21:32:00.345Z,99669.36
2018-11-23T21:34:27.743Z,99670.52
2018-11-23T21:36:55.003Z,99678.70
2018-11-23T21:39:22.719Z,99673.78
2018-11-23T21:41:49.993Z,99670.77
2018-11-23T21:44:17.292Z,99663.83
2018-11-23T21:46:44.853Z,99669.14
2018-11-23T21:49:12.150Z,99664.44
2018-11-23T21:51:39.431Z,99660.24
2018-11-23T21:54:07.366Z,99669.58
2018-11-23T21:56:34.638Z,99665.80
2018-11-23T21:59:02.347Z,99659.75
2018-11-23T22:01:31.634Z,99655.98
2018-11-23T22:04:06.166Z,99657.03
2018-11-23T22:06:27.093Z,99658.34
2018-11-23T22:08:54.659Z,99649.55
2018-11-23T22:11:21.921Z,99649.16
2018-11-23T22:13:50.407Z,99647.09
2018-11-23T22:16:19.959Z,99642.98
2018-11-23T22:18:48.240Z,99639.01
2018-11-23T22:21:15.524Z,99629.41
2018-11-23T22:23:43.250Z,99633.77
2018-11-23T22:26:10.516Z,99640.59
2018-11-23T22:28:37.756Z,99632.56
2018-11-23T22:31:05.441Z,99630.63
2018-11-23T22:33:32.712Z,99623.42
2018-11-23T22:35:59.968Z,99623.70
2018-11-23T22:38:27.639Z,99623.84
2018-11-23T22:40:54.925Z,99627.24
2018-11-23T22:43:22.214Z,99620.63
2018-11-23T22:45:49.765Z,99619.33
2018-11-23T22:48:17.056Z,99615.89
2018-11-23T22:50:44.329Z,99616.49
2018-11-23T22:53:11.963Z,99612.50
2018-11-23T22:55:40.370Z,99609.83
2018-11-23T22:58:08.440Z,99606.82
2018-11-23T23:00:38.740Z,99601.11
2018-11-23T23:03:06.281Z,99593.73
2018-11-23T23:05:33.679Z,99602.95
2018-11-23T23:08:01.413Z,99595.25
2018-11-23T23:10:28.677Z,99588.81
2018-11-23T23:12:55.979Z,99591.44
2018-11-23T23:15:23.672Z,99584.06
2018-11-23T23:17:50.998Z,99579.20
2018-11-23T23:20:18.263Z,99582.21
2018-11-23T23:22:45.865Z,99582.21
2018-11-23T23:25:13.144Z,99578.67
2018-11-23T23:27:40.424Z,99579.44
2018-11-23T23:30:08.592Z,99575.89
2018-11-23T23:32:35.877Z,99574.08
2018-11-23T23:35:03.235Z,99563.98
2018-11-23T23:37:30.803Z,99565.30
2018-11-23T23:39:58.089Z,99563.60
2018-11-23T23:42:25.350Z,99564.53
2018-11-23T23:44:52.961Z,99557.56
2018-11-23T23:47:20.202Z,99555.96
2018-11-23T23:49:47.447Z,99554.33
2018-11-23T23:52:15.122Z,99557.39
2018-11-23T23:54:42.393Z,99553.14
2018-11-23T23:57:09.765Z,99550.13
2018-11-23T23:59:37.490Z,99552.97
